sensor_id;sensor_type;location;lat;lon;timestamp;pressure;altitude;pressure_sealevel;temperature;humidity
49915;BME280;35806;47.958;13.158;2023-02-20T00:01:06;95612.25;;;5.42;57.75
49915;BME280;35806;47.958;13.158;2023-02-20T00:03:34;95603.59;;;6.11;56.55
49915;BME280;35806;47.958;13.158;2023-02-20T00:06:02;95603.42;;;5.53;57.55
49915;BME280;35806;47.958;13.158;2023-02-20T00:08:29;95599.30;;;5.35;57.42
49915;BME280;35806;47.958;13.158;2023-02-20T00:10:57;95599.41;;;5.60;57.16
49915;BME280;35806;47.958;13.158;2023-02-20T00:13:24;95597.13;;;5.38;58.04
49915;BME280;35806;47.958;13.158;2023-02-20T00:15:52;95604.32;;;6.15;56.19
49915;BME280;35806;47.958;13.158;2023-02-20T00:18:20;95599.33;;;5.74;56.78
49915;BME280;35806;47.958;13.158;2023-02-20T00:20:47;95601.24;;;5.67;56.91
49915;BME280;35806;47.958;13.158;2023-02-20T00:23:15;95595.65;;;5.27;58.13
49915;BME280;35806;47.958;13.158;2023-02-20T00:25:42;95604.69;;;5.29;57.69
49915;BME280;35806;47.958;13.158;2023-02-20T00:28:10;95604.91;;;4.83;59.05
49915;BME280;35806;47.958;13.158;2023-02-20T00:30:38;95604.77;;;5.25;58.37
49915;BME280;35806;47.958;13.158;2023-02-20T00:33:07;95599.30;;;4.56;60.34
49915;BME280;35806;47.958;13.158;2023-02-20T00:35:35;95602.66;;;4.88;58.89
49915;BME280;35806;47.958;13.158;2023-02-20T00:38:03;95601.83;;;5.46;58.36
49915;BME280;35806;47.958;13.158;2023-02-20T00:40:31;95599.15;;;5.17;58.81
49915;BME280;35806;47.958;13.158;2023-02-20T00:42:59;95595.36;;;4.38;60.34
49915;BME280;35806;47.958;13.158;2023-02-20T00:45:34;95598.73;;;5.20;59.25
49915;BME280;35806;47.958;13.158;2023-02-20T00:48:07;95602.55;;;4.85;59.80
49915;BME280;35806;47.958;13.158;2023-02-20T00:50:34;95610.40;;;5.00;58.68
49915;BME280;35806;47.958;13.158;2023-02-20T00:53:02;95610.78;;;4.73;60.36
49915;BME280;35806;47.958;13.158;2023-02-20T00:55:30;95613.14;;;5.07;59.27
49915;BME280;35806;47.958;13.158;2023-02-20T00:57:57;95612.57;;;4.98;60.09
49915;BME280;35806;47.958;13.158;2023-02-20T01:00:27;95609.33;;;4.76;60.31
49915;BME280;35806;47.958;13.158;2023-02-20T01:02:55;95601.91;;;4.88;60.00
49915;BME280;35806;47.958;13.158;2023-02-20T01:05:23;95598.33;;;4.30;60.64
49915;BME280;35806;47.958;13.158;2023-02-20T01:07:50;95596.99;;;4.11;61.64
49915;BME280;35806;47.958;13.158;2023-02-20T01:10:18;95592.00;;;4.35;60.96
49915;BME280;35806;47.958;13.158;2023-02-20T01:12:46;95592.62;;;4.86;60.78
49915;BME280;35806;47.958;13.158;2023-02-20T01:15:15;95591.76;;;5.34;59.33
49915;BME280;35806;47.958;13.158;2023-02-20T01:17:42;95594.62;;;5.20;59.49
49915;BME280;35806;47.958;13.158;2023-02-20T01:20:11;95600.92;;;4.66;59.24
49915;BME280;35806;47.958;13.158;2023-02-20T01:22:38;95592.19;;;4.66;60.28
49915;BME280;35806;47.958;13.158;2023-02-20T01:25:06;95594.95;;;4.33;60.01
49915;BME280;35806;47.958;13.158;2023-02-20T01:27:39;95593.35;;;4.26;60.11
49915;BME280;35806;47.958;13.158;2023-02-20T01:30:08;95591.72;;;4.75;60.37
49915;BME280;35806;47.958;13.158;2023-02-20T01:32:35;95591.93;;;4.69;59.87
49915;BME280;35806;47.958;13.158;2023-02-20T01:35:03;95590.72;;;4.94;59.80
49915;BME280;35806;47.958;13.158;2023-02-20T01:37:31;95598.13;;;4.64;60.52
49915;BME280;35806;47.958;13.158;2023-02-20T01:39:59;95594.82;;;5.34;59.08
49915;BME280;35806;47.958;13.158;2023-02-20T01:42:29;95592.88;;;5.06;58.60
49915;BME280;35806;47.958;13.158;2023-02-20T01:45:17;95593.65;;;4.55;59.62
49915;BME280;35806;47.958;13.158;2023-02-20T01:47:45;95590.19;;;4.91;59.05
49915;BME280;35806;47.958;13.158;2023-02-20T01:50:14;95586.16;;;5.45;58.05
49915;BME280;35806;47.958;13.158;2023-02-20T01:52:44;95588.46;;;4.39;59.81
49915;BME280;35806;47.958;13.158;2023-02-20T01:55:14;95589.85;;;4.88;58.97
49915;BME280;35806;47.958;13.158;2023-02-20T01:57:50;95591.46;;;4.94;59.77
49915;BME280;35806;47.958;13.158;2023-02-20T02:15:27;95575.82;;;4.32;60.36
49915;BME280;35806;47.958;13.158;2023-02-20T02:18:07;95583.23;;;4.76;59.14
49915;BME280;35806;47.958;13.158;2023-02-20T02:21:13;95575.92;;;4.99;59.05
49915;BME280;35806;47.958;13.158;2023-02-20T02:24:02;95581.46;;;5.63;58.22
49915;BME280;35806;47.958;13.158;2023-02-20T02:26:49;95575.90;;;5.55;58.16
49915;BME280;35806;47.958;13.158;2023-02-20T02:32:02;95583.81;;;5.60;58.58
49915;BME280;35806;47.958;13.158;2023-02-20T02:37:02;95582.23;;;5.74;58.41
49915;BME280;35806;47.958;13.158;2023-02-20T02:39:38;95579.13;;;5.30;58.38
49915;BME280;35806;47.958;13.158;2023-02-20T02:42:15;95586.60;;;4.78;59.52
49915;BME280;35806;47.958;13.158;2023-02-20T02:44:51;95590.96;;;5.00;59.58
49915;BME280;35806;47.958;13.158;2023-02-20T02:47:26;95594.22;;;4.56;59.90
49915;BME280;35806;47.958;13.158;2023-02-20T02:49:58;95594.74;;;4.98;58.49
49915;BME280;35806;47.958;13.158;2023-02-20T02:52:29;95597.14;;;5.11;58.82
49915;BME280;35806;47.958;13.158;2023-02-20T02:54:56;95600.60;;;5.10;58.88
49915;BME280;35806;47.958;13.158;2023-02-20T02:57:26;95605.18;;;4.50;60.58
49915;BME280;35806;47.958;13.158;2023-02-20T02:59:58;95596.50;;;4.62;60.49
49915;BME280;35806;47.958;13.158;2023-02-20T03:02:28;95597.58;;;4.35;61.43
49915;BME280;35806;47.958;13.158;2023-02-20T03:04:58;95591.68;;;4.59;60.32
49915;BME280;35806;47.958;13.158;2023-02-20T03:07:27;95595.49;;;5.19;59.50
49915;BME280;35806;47.958;13.158;2023-02-20T03:10:04;95591.60;;;5.30;59.74
49915;BME280;35806;47.958;13.158;2023-02-20T03:12:36;95591.55;;;4.42;61.15
49915;BME280;35806;47.958;13.158;2023-02-20T03:15:08;95594.60;;;4.30;61.31
49915;BME280;35806;47.958;13.158;2023-02-20T03:17:41;95592.63;;;4.69;60.67
49915;BME280;35806;47.958;13.158;2023-02-20T03:20:15;95595.00;;;4.30;61.66
49915;BME280;35806;47.958;13.158;2023-02-20T03:22:46;95590.14;;;4.35;61.61
49915;BME280;35806;47.958;13.158;2023-02-20T03:25:19;95591.97;;;4.74;60.36
49915;BME280;35806;47.958;13.158;2023-02-20T03:27:51;95589.33;;;5.09;60.05
49915;BME280;35806;47.958;13.158;2023-02-20T03:30:23;95580.66;;;4.76;59.50
49915;BME280;35806;47.958;13.158;2023-02-20T03:33:02;95576.28;;;4.52;60.17
49915;BME280;35806;47.958;13.158;2023-02-20T03:35:31;95574.22;;;4.56;60.51
49915;BME280;35806;47.958;13.158;2023-02-20T03:38:02;95575.98;;;4.19;61.47
49915;BME280;35806;47.958;13.158;2023-02-20T03:40:30;95582.56;;;4.23;61.35
49915;BME280;35806;47.958;13.158;2023-02-20T03:43:03;95589.63;;;4.69;60.69
49915;BME280;35806;47.958;13.158;2023-02-20T03:45:35;95584.88;;;4.32;60.85
49915;BME280;35806;47.958;13.158;2023-02-20T03:48:07;95592.93;;;4.40;60.76
49915;BME280;35806;47.958;13.158;2023-02-20T03:50:35;95589.62;;;4.10;62.94
49915;BME280;35806;47.958;13.158;2023-02-20T03:53:03;95592.23;;;4.11;61.48
49915;BME280;35806;47.958;13.158;2023-02-20T03:55:31;95598.39;;;3.85;62.44
49915;BME280;35806;47.958;13.158;2023-02-20T03:58:01;95600.96;;;4.27;61.23
49915;BME280;35806;47.958;13.158;2023-02-20T04:00:34;95594.64;;;4.83;60.34
49915;BME280;35806;47.958;13.158;2023-02-20T04:03:08;95592.46;;;4.67;60.30
49915;BME280;35806;47.958;13.158;2023-02-20T04:05:41;95582.18;;;4.75;60.15
49915;BME280;35806;47.958;13.158;2023-02-20T04:08:14;95582.20;;;3.96;62.16
49915;BME280;35806;47.958;13.158;2023-02-20T04:10:45;95580.06;;;4.39;60.83
49915;BME280;35806;47.958;13.158;2023-02-20T04:13:14;95581.84;;;3.89;61.78
49915;BME280;35806;47.958;13.158;2023-02-20T04:15:43;95581.88;;;3.50;62.91
49915;BME280;35806;47.958;13.158;2023-02-20T04:18:14;95582.66;;;3.66;61.39
49915;BME280;35806;47.958;13.158;2023-02-20T04:20:42;95593.76;;;4.36;60.76
49915;BME280;35806;47.958;13.158;2023-02-20T04:23:14;95599.86;;;3.81;61.81
49915;BME280;35806;47.958;13.158;2023-02-20T04:25:54;95604.29;;;4.76;60.18
49915;BME280;35806;47.958;13.158;2023-02-20T04:28:22;95607.90;;;3.82;61.69
49915;BME280;35806;47.958;13.158;2023-02-20T04:30:51;95596.75;;;4.88;59.53
49915;BME280;35806;47.958;13.158;2023-02-20T04:33:20;95597.03;;;4.64;60.02
49915;BME280;35806;47.958;13.158;2023-02-20T04:35:47;95600.47;;;4.48;60.55
49915;BME280;35806;47.958;13.158;2023-02-20T04:38:15;95603.98;;;4.42;60.29
49915;BME280;35806;47.958;13.158;2023-02-20T04:40:43;95608.14;;;4.93;59.59
49915;BME280;35806;47.958;13.158;2023-02-20T04:43:10;95607.37;;;4.49;59.92
49915;BME280;35806;47.958;13.158;2023-02-20T04:45:38;95606.24;;;4.21;60.58
49915;BME280;35806;47.958;13.158;2023-02-20T04:48:05;95611.94;;;3.84;61.64
49915;BME280;35806;47.958;13.158;2023-02-20T04:50:41;95607.15;;;4.38;60.49
49915;BME280;35806;47.958;13.158;2023-02-20T04:53:08;95607.81;;;4.49;59.77
49915;BME280;35806;47.958;13.158;2023-02-20T04:55:36;95603.89;;;4.29;60.19
49915;BME280;35806;47.958;13.158;2023-02-20T04:58:08;95599.36;;;4.35;59.70
49915;BME280;35806;47.958;13.158;2023-02-20T05:00:35;95593.26;;;4.60;59.64
49915;BME280;35806;47.958;13.158;2023-02-20T05:03:03;95600.11;;;4.32;59.50
49915;BME280;35806;47.958;13.158;2023-02-20T05:05:30;95599.26;;;4.63;60.33
49915;BME280;35806;47.958;13.158;2023-02-20T05:08:04;95597.86;;;3.92;61.25
49915;BME280;35806;47.958;13.158;2023-02-20T05:10:32;95597.94;;;4.29;59.93
49915;BME280;35806;47.958;13.158;2023-02-20T05:13:01;95597.25;;;4.31;60.17
49915;BME280;35806;47.958;13.158;2023-02-20T05:15:29;95599.91;;;4.37;60.02
49915;BME280;35806;47.958;13.158;2023-02-20T05:18:07;95593.99;;;4.38;59.72
49915;BME280;35806;47.958;13.158;2023-02-20T05:20:34;95595.09;;;4.33;59.81
49915;BME280;35806;47.958;13.158;2023-02-20T05:23:01;95596.23;;;4.50;59.62
49915;BME280;35806;47.958;13.158;2023-02-20T05:25:28;95591.08;;;4.20;59.64
49915;BME280;35806;47.958;13.158;2023-02-20T05:27:55;95590.97;;;4.57;59.21
49915;BME280;35806;47.958;13.158;2023-02-20T05:30:23;95591.91;;;4.33;59.61
49915;BME280;35806;47.958;13.158;2023-02-20T05:32:50;95593.82;;;4.70;58.93
49915;BME280;35806;47.958;13.158;2023-02-20T05:35:18;95591.64;;;4.36;58.90
49915;BME280;35806;47.958;13.158;2023-02-20T05:37:46;95600.29;;;4.32;59.43
49915;BME280;35806;47.958;13.158;2023-02-20T05:40:14;95604.58;;;4.54;59.07
49915;BME280;35806;47.958;13.158;2023-02-20T05:42:41;95609.76;;;4.03;60.14
49915;BME280;35806;47.958;13.158;2023-02-20T05:45:08;95612.31;;;3.99;60.93
49915;BME280;35806;47.958;13.158;2023-02-20T05:47:36;95612.94;;;4.52;59.26
49915;BME280;35806;47.958;13.158;2023-02-20T05:50:04;95616.67;;;4.54;59.03
49915;BME280;35806;47.958;13.158;2023-02-20T05:52:32;95616.95;;;4.34;59.54
49915;BME280;35806;47.958;13.158;2023-02-20T05:55:05;95613.57;;;3.60;60.78
49915;BME280;35806;47.958;13.158;2023-02-20T05:57:33;95615.20;;;3.62;60.74
49915;BME280;35806;47.958;13.158;2023-02-20T06:00:01;95615.14;;;3.83;61.46
49915;BME280;35806;47.958;13.158;2023-02-20T06:02:31;95609.60;;;3.56;62.08
49915;BME280;35806;47.958;13.158;2023-02-20T06:04:58;95617.26;;;3.70;60.94
49915;BME280;35806;47.958;13.158;2023-02-20T06:07:26;95613.20;;;3.89;60.34
49915;BME280;35806;47.958;13.158;2023-02-20T06:09:54;95620.33;;;3.74;61.46
49915;BME280;35806;47.958;13.158;2023-02-20T06:12:21;95626.11;;;3.82;61.74
49915;BME280;35806;47.958;13.158;2023-02-20T06:14:48;95624.44;;;3.64;60.90
49915;BME280;35806;47.958;13.158;2023-02-20T06:17:16;95628.02;;;3.45;61.12
49915;BME280;35806;47.958;13.158;2023-02-20T06:19:43;95629.95;;;4.00;59.95
49915;BME280;35806;47.958;13.158;2023-02-20T06:22:11;95633.37;;;4.02;61.09
49915;BME280;35806;47.958;13.158;2023-02-20T06:24:38;95639.12;;;3.49;62.15
49915;BME280;35806;47.958;13.158;2023-02-20T06:27:05;95643.63;;;3.59;60.93
49915;BME280;35806;47.958;13.158;2023-02-20T06:29:38;95648.83;;;2.78;64.06
49915;BME280;35806;47.958;13.158;2023-02-20T06:32:05;95654.31;;;1.93;66.22
49915;BME280;35806;47.958;13.158;2023-02-20T06:34:33;95652.09;;;3.47;62.33
49915;BME280;35806;47.958;13.158;2023-02-20T06:37:00;95658.67;;;2.94;62.56
49915;BME280;35806;47.958;13.158;2023-02-20T06:39:28;95668.06;;;3.73;61.52
49915;BME280;35806;47.958;13.158;2023-02-20T06:41:56;95667.76;;;4.16;60.46
49915;BME280;35806;47.958;13.158;2023-02-20T06:44:23;95674.28;;;4.37;59.20
49915;BME280;35806;47.958;13.158;2023-02-20T06:46:51;95676.36;;;3.40;61.14
49915;BME280;35806;47.958;13.158;2023-02-20T06:49:19;95677.82;;;2.98;62.13
49915;BME280;35806;47.958;13.158;2023-02-20T06:51:46;95676.02;;;3.99;60.20
49915;BME280;35806;47.958;13.158;2023-02-20T06:54:15;95676.18;;;4.29;59.84
49915;BME280;35806;47.958;13.158;2023-02-20T06:56:42;95676.49;;;4.19;59.49
49915;BME280;35806;47.958;13.158;2023-02-20T06:59:12;95677.53;;;4.83;58.15
49915;BME280;35806;47.958;13.158;2023-02-20T07:01:41;95679.30;;;4.81;57.64
49915;BME280;35806;47.958;13.158;2023-02-20T07:04:15;95685.21;;;4.65;57.61
49915;BME280;35806;47.958;13.158;2023-02-20T07:06:53;95683.18;;;4.76;58.42
49915;BME280;35806;47.958;13.158;2023-02-20T07:09:21;95682.73;;;4.63;58.01
49915;BME280;35806;47.958;13.158;2023-02-20T07:11:49;95692.13;;;5.00;57.51
49915;BME280;35806;47.958;13.158;2023-02-20T07:14:17;95685.25;;;5.35;56.91
49915;BME280;35806;47.958;13.158;2023-02-20T07:16:45;95680.07;;;5.28;56.14
49915;BME280;35806;47.958;13.158;2023-02-20T07:19:13;95677.31;;;5.52;56.73
49915;BME280;35806;47.958;13.158;2023-02-20T07:21:39;95685.60;;;4.96;57.10
49915;BME280;35806;47.958;13.158;2023-02-20T07:24:07;95680.30;;;4.90;56.90
49915;BME280;35806;47.958;13.158;2023-02-20T07:26:35;95679.75;;;4.64;57.89
49915;BME280;35806;47.958;13.158;2023-02-20T07:29:03;95676.69;;;5.41;55.96
49915;BME280;35806;47.958;13.158;2023-02-20T07:31:32;95670.76;;;4.94;56.62
49915;BME280;35806;47.958;13.158;2023-02-20T07:33:59;95671.70;;;4.83;56.39
49915;BME280;35806;47.958;13.158;2023-02-20T07:36:27;95672.26;;;4.82;56.24
49915;BME280;35806;47.958;13.158;2023-02-20T07:38:56;95664.46;;;5.55;55.06
49915;BME280;35806;47.958;13.158;2023-02-20T07:41:24;95658.28;;;4.82;55.66
49915;BME280;35806;47.958;13.158;2023-02-20T07:43:52;95653.53;;;5.19;55.61
49915;BME280;35806;47.958;13.158;2023-02-20T07:46:20;95659.15;;;5.44;55.10
49915;BME280;35806;47.958;13.158;2023-02-20T07:48:47;95663.85;;;5.86;54.54
49915;BME280;35806;47.958;13.158;2023-02-20T07:51:16;95664.23;;;4.99;54.72
49915;BME280;35806;47.958;13.158;2023-02-20T07:53:47;95668.89;;;5.81;54.86
49915;BME280;35806;47.958;13.158;2023-02-20T07:56:14;95668.53;;;4.86;55.60
49915;BME280;35806;47.958;13.158;2023-02-20T07:58:42;95670.25;;;5.53;53.86
49915;BME280;35806;47.958;13.158;2023-02-20T08:01:10;95662.28;;;5.34;54.06
49915;BME280;35806;47.958;13.158;2023-02-20T08:03:37;95660.89;;;5.57;53.58
49915;BME280;35806;47.958;13.158;2023-02-20T08:06:05;95662.14;;;5.43;53.27
49915;BME280;35806;47.958;13.158;2023-02-20T08:08:33;95667.48;;;5.67;52.78
49915;BME280;35806;47.958;13.158;2023-02-20T08:11:01;95664.90;;;5.84;53.23
49915;BME280;35806;47.958;13.158;2023-02-20T08:13:28;95664.11;;;6.23;51.73
49915;BME280;35806;47.958;13.158;2023-02-20T08:15:56;95662.34;;;6.00;52.23
49915;BME280;35806;47.958;13.158;2023-02-20T08:18:23;95660.16;;;5.43;52.60
49915;BME280;35806;47.958;13.158;2023-02-20T08:20:51;95662.09;;;5.59;52.92
49915;BME280;35806;47.958;13.158;2023-02-20T08:23:21;95662.05;;;5.39;52.95
49915;BME280;35806;47.958;13.158;2023-02-20T08:25:49;95655.20;;;5.90;51.87
49915;BME280;35806;47.958;13.158;2023-02-20T08:28:16;95659.01;;;5.66;52.39
49915;BME280;35806;47.958;13.158;2023-02-20T08:30:44;95658.32;;;6.45;52.29
49915;BME280;35806;47.958;13.158;2023-02-20T08:33:12;95662.26;;;5.17;52.79
49915;BME280;35806;47.958;13.158;2023-02-20T08:35:44;95659.30;;;5.85;52.32
49915;BME280;35806;47.958;13.158;2023-02-20T08:38:24;95656.99;;;5.51;52.15
49915;BME280;35806;47.958;13.158;2023-02-20T08:40:52;95653.53;;;6.23;51.95
49915;BME280;35806;47.958;13.158;2023-02-20T08:43:20;95655.88;;;5.93;51.99
49915;BME280;35806;47.958;13.158;2023-02-20T08:45:53;95663.33;;;4.99;53.76
49915;BME280;35806;47.958;13.158;2023-02-20T08:48:20;95664.78;;;6.01;51.02
49915;BME280;35806;47.958;13.158;2023-02-20T08:50:48;95658.98;;;6.15;51.38
49915;BME280;35806;47.958;13.158;2023-02-20T08:53:16;95643.93;;;5.94;50.11
49915;BME280;35806;47.958;13.158;2023-02-20T08:55:43;95641.57;;;6.03;50.56
49915;BME280;35806;47.958;13.158;2023-02-20T08:58:12;95637.31;;;6.47;50.43
49915;BME280;35806;47.958;13.158;2023-02-20T09:00:40;95633.83;;;6.44;50.90
49915;BME280;35806;47.958;13.158;2023-02-20T09:03:07;95629.30;;;6.47;50.21
49915;BME280;35806;47.958;13.158;2023-02-20T09:05:35;95624.97;;;7.30;49.32
49915;BME280;35806;47.958;13.158;2023-02-20T09:08:04;95624.82;;;6.42;49.68
49915;BME280;35806;47.958;13.158;2023-02-20T09:10:31;95624.26;;;5.43;50.99
49915;BME280;35806;47.958;13.158;2023-02-20T09:12:59;95624.75;;;6.32;50.62
49915;BME280;35806;47.958;13.158;2023-02-20T09:15:26;95620.51;;;6.16;50.96
49915;BME280;35806;47.958;13.158;2023-02-20T09:17:54;95618.65;;;6.61;49.97
49915;BME280;35806;47.958;13.158;2023-02-20T09:20:22;95617.13;;;6.55;50.34
49915;BME280;35806;47.958;13.158;2023-02-20T09:22:50;95616.61;;;6.34;49.18
49915;BME280;35806;47.958;13.158;2023-02-20T09:25:17;95618.84;;;6.71;49.41
49915;BME280;35806;47.958;13.158;2023-02-20T09:27:45;95616.06;;;6.37;48.43
49915;BME280;35806;47.958;13.158;2023-02-20T09:30:15;95613.84;;;7.32;47.98
49915;BME280;35806;47.958;13.158;2023-02-20T09:32:43;95612.24;;;7.20;47.18
49915;BME280;35806;47.958;13.158;2023-02-20T09:35:15;95609.69;;;7.19;47.26
49915;BME280;35806;47.958;13.158;2023-02-20T09:37:43;95614.91;;;5.26;51.08
49915;BME280;35806;47.958;13.158;2023-02-20T09:40:11;95612.74;;;5.17;51.83
49915;BME280;35806;47.958;13.158;2023-02-20T09:43:14;95604.97;;;5.15;54.25
49915;BME280;35806;47.958;13.158;2023-02-20T09:45:47;95596.41;;;5.64;52.08
49915;BME280;35806;47.958;13.158;2023-02-20T09:48:27;95595.68;;;6.39;50.65
49915;BME280;35806;47.958;13.158;2023-02-20T09:51:01;95594.61;;;6.12;51.45
49915;BME280;35806;47.958;13.158;2023-02-20T09:53:31;95582.01;;;6.33;49.66
49915;BME280;35806;47.958;13.158;2023-02-20T09:56:25;95576.43;;;6.09;50.80
49915;BME280;35806;47.958;13.158;2023-02-20T09:58:57;95576.42;;;5.31;54.18
49915;BME280;35806;47.958;13.158;2023-02-20T10:01:28;95570.38;;;6.31;51.46
49915;BME280;35806;47.958;13.158;2023-02-20T10:03:59;95574.07;;;6.24;51.34
49915;BME280;35806;47.958;13.158;2023-02-20T10:06:31;95573.77;;;5.91;51.49
49915;BME280;35806;47.958;13.158;2023-02-20T10:08:59;95574.32;;;5.97;51.68
49915;BME280;35806;47.958;13.158;2023-02-20T10:11:37;95573.25;;;6.36;52.14
49915;BME280;35806;47.958;13.158;2023-02-20T10:14:21;95577.40;;;5.08;53.57
49915;BME280;35806;47.958;13.158;2023-02-20T10:16:58;95573.44;;;6.75;50.67
49915;BME280;35806;47.958;13.158;2023-02-20T10:19:33;95571.18;;;6.81;51.17
49915;BME280;35806;47.958;13.158;2023-02-20T10:22:04;95573.66;;;7.86;47.74
49915;BME280;35806;47.958;13.158;2023-02-20T10:24:44;95572.71;;;6.03;50.64
49915;BME280;35806;47.958;13.158;2023-02-20T10:27:24;95566.18;;;6.71;49.03
49915;BME280;35806;47.958;13.158;2023-02-20T10:29:54;95565.32;;;6.72;49.24
49915;BME280;35806;47.958;13.158;2023-02-20T10:32:25;95557.66;;;5.61;52.83
49915;BME280;35806;47.958;13.158;2023-02-20T10:35:00;95548.76;;;5.58;52.40
49915;BME280;35806;47.958;13.158;2023-02-20T10:37:34;95547.93;;;5.14;55.36
49915;BME280;35806;47.958;13.158;2023-02-20T10:40:13;95540.18;;;4.71;56.34
49915;BME280;35806;47.958;13.158;2023-02-20T10:42:47;95546.58;;;6.73;51.27
49915;BME280;35806;47.958;13.158;2023-02-20T10:45:24;95544.95;;;6.81;49.97
49915;BME280;35806;47.958;13.158;2023-02-20T10:47:58;95543.47;;;6.35;51.50
49915;BME280;35806;47.958;13.158;2023-02-20T10:50:34;95531.65;;;6.74;52.02
49915;BME280;35806;47.958;13.158;2023-02-20T10:53:09;95527.77;;;7.05;49.73
49915;BME280;35806;47.958;13.158;2023-02-20T10:55:46;95526.41;;;7.53;48.99
49915;BME280;35806;47.958;13.158;2023-02-20T10:58:18;95516.19;;;8.35;47.68
49915;BME280;35806;47.958;13.158;2023-02-20T11:00:53;95509.51;;;8.44;46.79
49915;BME280;35806;47.958;13.158;2023-02-20T11:03:26;95507.97;;;8.06;46.39
49915;BME280;35806;47.958;13.158;2023-02-20T11:05:58;95496.83;;;10.15;43.42
49915;BME280;35806;47.958;13.158;2023-02-20T11:08:27;95493.35;;;10.19;42.78
49915;BME280;35806;47.958;13.158;2023-02-20T11:10:58;95492.25;;;11.00;40.31
49915;BME280;35806;47.958;13.158;2023-02-20T11:13:26;95493.99;;;11.68;38.97
49915;BME280;35806;47.958;13.158;2023-02-20T11:15:55;95488.13;;;12.04;38.09
49915;BME280;35806;47.958;13.158;2023-02-20T11:18:25;95476.25;;;10.99;40.26
49915;BME280;35806;47.958;13.158;2023-02-20T11:20:54;95470.21;;;12.58;39.04
49915;BME280;35806;47.958;13.158;2023-02-20T11:23:38;95462.94;;;12.05;38.33
49915;BME280;35806;47.958;13.158;2023-02-20T11:26:26;95457.78;;;12.28;37.38
49915;BME280;35806;47.958;13.158;2023-02-20T11:28:58;95449.46;;;13.38;35.97
49915;BME280;35806;47.958;13.158;2023-02-20T11:31:25;95444.12;;;13.74;34.97
49915;BME280;35806;47.958;13.158;2023-02-20T11:33:54;95439.29;;;13.87;35.76
49915;BME280;35806;47.958;13.158;2023-02-20T11:36:23;95441.92;;;13.51;34.65
49915;BME280;35806;47.958;13.158;2023-02-20T11:38:57;95439.76;;;13.92;34.20
49915;BME280;35806;47.958;13.158;2023-02-20T11:41:30;95433.30;;;14.29;34.08
49915;BME280;35806;47.958;13.158;2023-02-20T11:44:18;95430.29;;;14.57;34.38
49915;BME280;35806;47.958;13.158;2023-02-20T11:46:46;95414.24;;;13.59;35.43
49915;BME280;35806;47.958;13.158;2023-02-20T11:49:26;95413.32;;;14.54;33.28
49915;BME280;35806;47.958;13.158;2023-02-20T11:52:06;95406.55;;;15.27;32.51
49915;BME280;35806;47.958;13.158;2023-02-20T11:54:35;95407.66;;;15.35;32.28
49915;BME280;35806;47.958;13.158;2023-02-20T11:57:05;95400.79;;;15.97;30.78
49915;BME280;35806;47.958;13.158;2023-02-20T11:59:35;95406.56;;;15.90;32.37
49915;BME280;35806;47.958;13.158;2023-02-20T12:02:15;95394.77;;;13.10;35.77
49915;BME280;35806;47.958;13.158;2023-02-20T12:05:02;95395.96;;;12.87;36.89
49915;BME280;35806;47.958;13.158;2023-02-20T12:07:35;95386.42;;;13.04;34.91
49915;BME280;35806;47.958;13.158;2023-02-20T12:10:23;95388.84;;;10.20;39.70
49915;BME280;35806;47.958;13.158;2023-02-20T12:12:52;95391.50;;;10.71;40.30
49915;BME280;35806;47.958;13.158;2023-02-20T12:15:27;95382.27;;;10.33;41.26
49915;BME280;35806;47.958;13.158;2023-02-20T12:18:09;95376.37;;;10.34;42.52
49915;BME280;35806;47.958;13.158;2023-02-20T12:20:46;95364.35;;;9.55;42.60
49915;BME280;35806;47.958;13.158;2023-02-20T12:23:23;95368.68;;;11.02;41.48
49915;BME280;35806;47.958;13.158;2023-02-20T12:26:04;95367.53;;;10.43;40.27
49915;BME280;35806;47.958;13.158;2023-02-20T12:28:40;95359.86;;;12.01;38.16
49915;BME280;35806;47.958;13.158;2023-02-20T12:31:20;95350.06;;;12.01;37.62
49915;BME280;35806;47.958;13.158;2023-02-20T12:33:59;95348.87;;;11.66;38.32
49915;BME280;35806;47.958;13.158;2023-02-20T12:36:34;95341.71;;;11.11;39.44
49915;BME280;35806;47.958;13.158;2023-02-20T12:39:06;95335.02;;;12.63;37.86
49915;BME280;35806;47.958;13.158;2023-02-20T12:41:48;95331.64;;;13.26;37.76
49915;BME280;35806;47.958;13.158;2023-02-20T12:44:57;95328.04;;;13.65;35.60
49915;BME280;35806;47.958;13.158;2023-02-20T12:47:30;95325.92;;;11.94;36.57
49915;BME280;35806;47.958;13.158;2023-02-20T12:50:21;95324.21;;;13.53;36.32
49915;BME280;35806;47.958;13.158;2023-02-20T12:53:36;95326.63;;;14.04;36.17
49915;BME280;35806;47.958;13.158;2023-02-20T12:56:20;95321.71;;;14.00;34.25
49915;BME280;35806;47.958;13.158;2023-02-20T12:58:56;95321.14;;;13.40;34.03
49915;BME280;35806;47.958;13.158;2023-02-20T13:01:26;95313.01;;;12.91;36.48
49915;BME280;35806;47.958;13.158;2023-02-20T13:04:01;95307.35;;;12.96;36.08
49915;BME280;35806;47.958;13.158;2023-02-20T13:06:34;95300.53;;;12.61;36.37
49915;BME280;35806;47.958;13.158;2023-02-20T13:09:14;95298.78;;;12.62;36.18
49915;BME280;35806;47.958;13.158;2023-02-20T13:11:47;95298.29;;;13.10;35.50
49915;BME280;35806;47.958;13.158;2023-02-20T13:14:27;95292.23;;;13.10;36.78
49915;BME280;35806;47.958;13.158;2023-02-20T13:17:07;95286.74;;;13.52;35.27
49915;BME280;35806;47.958;13.158;2023-02-20T13:19:42;95289.70;;;12.76;34.70
49915;BME280;35806;47.958;13.158;2023-02-20T13:22:12;95286.10;;;13.85;35.27
49915;BME280;35806;47.958;13.158;2023-02-20T13:24:41;95287.06;;;13.63;33.96
49915;BME280;35806;47.958;13.158;2023-02-20T13:27:09;95286.79;;;14.18;33.72
49915;BME280;35806;47.958;13.158;2023-02-20T13:29:39;95285.75;;;15.20;33.18
49915;BME280;35806;47.958;13.158;2023-02-20T13:32:24;95287.92;;;14.88;32.14
49915;BME280;35806;47.958;13.158;2023-02-20T13:34:52;95283.77;;;14.54;32.62
49915;BME280;35806;47.958;13.158;2023-02-20T13:37:54;95277.85;;;14.28;33.34
49915;BME280;35806;47.958;13.158;2023-02-20T13:40:40;95272.80;;;14.69;32.48